Badger Spring Valley, Nevada Weather observations

Data are for 10 minute period ending at time listed.
 Day   Time   Solar   Ave.   Ave.  Ave.  Vector  Max.   Baro.   Total    
  of    of     Rad.   Air    Rel.  Wind   Wind   Wind  Press.  Precip.   
Year   Day            Temp.  Hum.  Speed  Dir.   Gust                    
2014   (PST)  Kw/m2    F      %     mph   deg.    mph    mb.     in.     
-------------------------------------------------------------------------
 293    8:20   0.44   67.1    29    5.7   150     9.3   831.4    0.00 
 293    8:30   0.47   67.9    28    5.7   154     9.9   831.5    0.00 
 293    8:40   0.50   67.7    28    7.7   167    12.3   831.5    0.00 
 293    8:50   0.53   67.6    29    7.8   166    11.2   831.4    0.00 
 293    9:00   0.56   68.1    28    7.6   162    11.9   831.5    0.00 
 293    9:10   0.58   67.7    28    8.4   161    12.4   831.5    0.00 
 293    9:20   0.61   67.7    28    8.7   152    12.2   831.5    0.00 
 293    9:30   0.63   68.6    28    7.8   162    11.2   831.5    0.00 
 293    9:40   0.65   69.3    27    8.2   161    12.2   831.4    0.00 
 293    9:50   0.67   69.0    27    7.3   146    12.1   831.4    0.00 
 293   10:00   0.69   69.3    26    7.7   150    12.2   831.4    0.00 
 293   10:10   0.71   69.9    26    7.3   156    12.1   831.4    0.00 
 293   10:20   0.72   70.0    26    7.3   155    13.1   831.3    0.00 
 293   10:30   0.73   70.3    25    7.3   161    12.4   831.2    0.00 
 293   10:40   0.74   70.3    25    7.3   146    12.3   831.1    0.00 
 293   10:50   0.75   70.7    25    7.4   149    12.5   831.1    0.00 
 293   11:00   0.76   71.3    25    8.0   157    11.8   831.0    0.00 
 293   11:10   0.77   70.8    26    8.4   136    15.9   830.8    0.00 
 293   11:20   0.77   70.8    26    7.7   138    13.0   830.7    0.00 
 293   11:30   0.77   71.6    25    9.3   141    15.4   830.4    0.00 
 293   11:40   0.77   71.9    25    9.6   138    16.4   830.3    0.00 
 293   11:50   0.77   71.8    25    9.8   142    15.1   830.2    0.00 
 293   12:00   0.76   71.7    25   10.3   145    16.9   830.1    0.00 
 293   12:10   0.76   71.8    25    9.3   148    15.5   830.0    0.00 
 293   12:20   0.72   72.5    24    9.1   139    14.8   829.9    0.00 
 293   12:30   0.72   72.0    25    9.9   134    16.9   829.8    0.00 
 293   12:40   0.73   72.2    25    9.8   138    16.4   829.8    0.00 
 293   12:50   0.72   72.2    25   11.6   130    18.9   829.7    0.00 
 293   13:00   0.70   72.1    25   11.2   125    18.3   829.6    0.00 
 293   13:10   0.69   72.4    24   12.9   127    18.6   829.5    0.00 
 293   13:20   0.67   72.2    24   12.5   133    18.2   829.5    0.00 
 293   13:30   0.49   71.7    25   12.1   136    17.3   829.4    0.00 
 293   13:40   0.58   71.7    25   12.9   134    18.8   829.4    0.00 
 293   13:50   0.39   71.2    26   14.7   130    21.5   829.3    0.00 
 293   14:00   0.58   71.6    26   12.8   129    18.4   829.3    0.00 
 293   14:10   0.48   71.8    25   14.1   132    20.9   829.2    0.00 
 293   14:20   0.50   71.6    26   14.3   126    21.2   829.2    0.00 
 293   14:30   0.45   71.0    26   14.3   131    20.5   829.1    0.00 
 293   14:40   0.43   70.9    26   13.8   132    18.6   829.0    0.00 
 293   14:50   0.42   71.0    26   14.4   130    19.4   828.9    0.00 
 293   15:00   0.38   70.9    26   12.9   134    18.8   828.9    0.00 
 293   15:10   0.33   70.5    27   14.4   130    18.7   828.8    0.00 
 293   15:20   0.23   69.8    28   14.3   132    21.9   828.8    0.00 
 293   15:30   0.28   69.3    28   15.4   136    21.0   828.7    0.00 
 293   15:40   0.24   69.0    29   15.1   133    19.4   828.7    0.00 
 293   15:50   0.16   68.6    30   13.3   134    18.5   828.5    0.00 
 293   16:00   0.06   67.4    31   13.9   137    19.4   828.5    0.00 
 293   16:10   0.05   66.8    32   13.4   136    18.6   828.4    0.00 
 293   16:20   0.06   66.4    33   11.4   134    16.6   828.3    0.00 
 293   16:30   0.03   65.9    34    9.7   138    14.5   828.3    0.00 
 293   16:40   0.03   65.7    34   10.5   137    15.1   828.3    0.00 
 293   16:50   0.02   65.4    34    8.4   140    12.0   828.2    0.00 
 293   17:00   0.01   65.1    35   10.8   140    14.0   828.2    0.00 
 293   17:10   0.00   64.9    35   10.7   141    14.9   828.1    0.00 
 293   17:20   0.00   64.3    36    6.3   149    10.2   828.2    0.00 
 293   17:30   0.00   63.8    36    4.6   161     9.6   828.2    0.00 
 293   17:40   0.00   63.3    38    4.9   157     7.8   828.2    0.00 
 293   17:50   0.00   63.2    38    4.9   159     7.6   828.3    0.00 
 293   18:00   0.00   62.8    38    3.8   181     6.4   828.3    0.00 
 293   18:10   0.00   62.3    39    2.9   201     5.2   828.3    0.00 
 293   18:20   0.00   61.9    40    2.8   237     4.9   828.2    0.00 
 293   18:30   0.00   61.7    40    3.7   229     5.7   828.2    0.00 
 293   18:40   0.00   61.9    40    5.0   233     6.9   828.2    0.00 
 293   18:50   0.00   62.0    40    5.0   208     8.2   828.1    0.00 
 293   19:00   0.00   62.2    40    5.7   192     8.8   828.1    0.00 
 293   19:10   0.00   62.2    40    2.5   245     6.6   828.1    0.00 
 293   19:20   0.00   61.6    41    2.3   242     4.6   828.1    0.00 
 293   19:30   0.00   61.0    41    0.9   272     2.0   828.1    0.00 
 293   19:40   0.00   60.0    43    0.7   219     2.6   828.1    0.00 
 293   19:50   0.00   60.1    43    0.2   209     1.2   828.1    0.00 
 293   20:00   0.00   60.0    43    2.7   245     4.5   828.2    0.00 
 293   20:10   0.00   59.7    43    3.8   243     4.6   828.2    0.00 
 293   20:20   0.00   60.2    43    3.3   212     4.9   828.1    0.00 
 293   20:30   0.00   60.7    42    3.6   221     4.5   828.2    0.00 
 293   20:40   0.00   60.7    42    4.6   219     6.8   828.2    0.00 
 293   20:50   0.00   61.0    42    4.7   218     6.9   828.2    0.00 
 293   21:00   0.00   60.2    43    1.3   154     4.4   828.2    0.00 
 293   21:10   0.00   59.9    44    3.2   174     5.1   828.2    0.00 
 293   21:20   0.00   60.2    43    2.2   181     4.0   828.2    0.00 
 293   21:30   0.00   60.1    44    1.9   200     5.1   828.2    0.00 
 293   21:40   0.00   60.3    43    3.9   212     5.4   828.3    0.00 
 293   21:50   0.00   60.6    43    3.7   212     5.4   828.2    0.00 
 293   22:00   0.00   60.6    44    5.1   219     6.7   828.2    0.00 
 293   22:10   0.00   61.0    43    5.1   222     6.6   828.2    0.00 
 293   22:20   0.00   60.4    44    2.9   177     6.0   828.2    0.00 
 293   22:30   0.00   59.5    46    1.7   189     2.8   828.1    0.00 
 293   22:40   0.00   59.5    46    3.5   218     7.7   828.2    0.00 
 293   22:50   0.00   60.2    45    5.6   213     8.3   828.1    0.00 
 293   23:00   0.00   60.3    44    4.8   212     7.5   828.1    0.00 
 293   23:10   0.00   59.8    45    5.6   215     8.1   828.0    0.00 
 293   23:20   0.00   59.7    45    6.0   218     8.8   827.9    0.00 
 293   23:30   0.00   60.1    43    6.5   219     8.2   828.0    0.00 
 293   23:40   0.00   59.5    44    5.7   220     6.9   827.9    0.00 
 293   23:50   0.00   59.5    44    5.8   219     7.5   827.9    0.00 
 294    0:00   0.00   59.3    44    6.8   224     8.6   827.9    0.00 
 294    0:10   0.00   59.5    44    6.7   224     8.3   827.8    0.00 
 294    0:20   0.00   59.5    44    6.6   230     8.6   827.9    0.00 
 294    0:30   0.00   59.4    44    5.8   228     7.5   827.8    0.00 
 294    0:40   0.00   59.3    44    6.2   227     7.7   827.8    0.00 
 294    0:50   0.00   59.1    44    6.9   220     9.6   827.8    0.00 
 294    1:00   0.00   58.5    45    6.7   225     8.6   827.7    0.00 
 294    1:10   0.00   58.7    44    6.4   223     8.5   827.9    0.00 
 294    1:20   0.00   58.4    45    6.1   220     8.8   827.8    0.00 
 294    1:30   0.00   58.2    45    4.4   232     7.0   827.8    0.00 
 294    1:40   0.00   56.9    46    3.2   244     5.6   827.8    0.00 
 294    1:50   0.00   57.0    46    5.1   248     7.8   827.6    0.00 
 294    2:00   0.00   57.4    46    4.3   257     8.2   827.4    0.00 
 294    2:10   0.00   54.5    50    8.8   286    10.7   827.6    0.00 
 294    2:20   0.00   55.0    50    8.2   280    10.6   827.5    0.00 
 294    2:30   0.00   54.8    50    6.2   264     8.3   827.3    0.00 
 294    2:40   0.00   53.8    52    7.7   286    10.9   827.4    0.00 
 294    2:50   0.00   54.6    50    9.8   291    10.8   827.4    0.00 
 294    3:00   0.00   55.4    49    8.9   286    10.7   827.5    0.00 
 294    3:10   0.00   55.4    48    6.8   268     9.9   827.5    0.00 
 294    3:20   0.00   54.3    50    3.1   281     6.2   827.6    0.00 
 294    3:30   0.00   54.5    50    3.9   288     6.1   827.5    0.00 
 294    3:40   0.00   55.5    47    5.3   284     8.7   827.7    0.00 
 294    3:50   0.00   54.8    48    2.4   276     7.7   827.7    0.00 
 294    4:00   0.00   53.0    51    0.6   306     3.4   827.6    0.00 
 294    4:10   0.00   51.2    54    0.7   328     2.8   827.5    0.00 
 294    4:20   0.00   50.6    55    1.6   299     5.0   827.6    0.00 
 294    4:30   0.00   50.3    56    1.9   272     4.1   827.6    0.00 
 294    4:40   0.00   52.5    52    3.3   205     6.0   827.5    0.00 
 294    4:50   0.00   53.4    51    5.3   195     7.4   827.5    0.00 
 294    5:00   0.00   53.4    52    5.0   201     6.2   827.4    0.00 
 294    5:10   0.00   53.0    52    4.0   229     6.2   827.5    0.00 
 294    5:20   0.00   51.3    56    1.7   239     4.0   827.7    0.00 
 294    5:30   0.00   53.7    51    3.5   242     5.3   827.7    0.00 
 294    5:40   0.00   51.9    54    2.7   214     4.0   827.7    0.00 
 294    5:50   0.00   49.5    60    2.4   224     4.2   827.8    0.00 
 294    6:00   0.00   49.0    60    3.3   322     4.6   827.9    0.00 
 294    6:10   0.01   50.7    59    3.8   319     4.4   828.0    0.00 
 294    6:20   0.04   51.4    59    3.0   315     3.7   828.1    0.00 
 294    6:30   0.08   54.0    56    2.4   297     3.1   828.2    0.00 
 294    6:40   0.10   56.0    52    3.1   272     5.0   828.3    0.00 
 294    6:50   0.13   58.5    47    2.2   243     3.4   828.3    0.00 
 294    7:00   0.17   59.6    45    3.5   292     5.1   828.7    0.00 
 294    7:10   0.20   60.8    43    1.2   229     2.3   828.9    0.00 
 294    7:20   0.23   62.5    41    1.1   158     2.6   829.1    0.00 
 294    7:30   0.27   63.0    40    2.4   173     4.6   829.2    0.00 
 294    7:40   0.30   63.1    40    1.9   169     3.3   829.3    0.00 
 294    7:50   0.34   63.0    40    2.9   124     5.6   829.4    0.00 
 294    8:00   0.37   62.9    40    3.3   145     5.8   829.5    0.00 
 294    8:10   0.41   63.0    40    5.3   153     8.8   829.4    0.00 

Return to Badger Spring Valley graphs page.


Western Regional Climate Center,wrcc@dri.edu